createdAt,value
2022-10-07T00:01:11.999Z,29.70
2022-10-07T00:03:40.558Z,31.38
2022-10-07T00:06:13.594Z,30.38
2022-10-07T00:08:43.765Z,30.75
2022-10-07T00:11:27.130Z,31.88
2022-10-07T00:13:58.332Z,30.05
2022-10-07T00:16:30.404Z,31.40
2022-10-07T00:19:00.756Z,31.50
2022-10-07T00:21:31.404Z,30.27
2022-10-07T00:24:00.100Z,33.83
2022-10-07T00:26:30.205Z,35.00
2022-10-07T00:28:58.626Z,33.97
2022-10-07T00:31:32.830Z,34.15
2022-10-07T00:34:03.624Z,33.88
2022-10-07T00:36:35.239Z,38.67
2022-10-07T00:39:06.999Z,36.38
2022-10-07T00:41:41.956Z,35.35
2022-10-07T00:44:30.154Z,35.30
2022-10-07T00:47:19.597Z,35.00
2022-10-07T00:49:54.536Z,35.17
2022-10-07T00:52:26.541Z,33.95
2022-10-07T00:54:56.408Z,33.15
2022-10-07T00:57:50.061Z,36.25
2022-10-07T01:00:18.028Z,32.42
2022-10-07T01:02:46.393Z,33.25
2022-10-07T01:05:14.439Z,33.08
2022-10-07T01:07:47.948Z,32.53
2022-10-07T01:10:20.464Z,32.92
2022-10-07T01:13:09.612Z,34.10
2022-10-07T01:15:49.956Z,33.10
2022-10-07T01:18:25.868Z,33.85
2022-10-07T01:21:14.103Z,32.95
2022-10-07T01:23:53.219Z,35.30
2022-10-07T01:26:46.890Z,35.28
2022-10-07T01:29:21.853Z,35.30
2022-10-07T01:32:34.614Z,34.65
2022-10-07T01:35:28.358Z,36.08
2022-10-07T01:38:00.762Z,34.88
2022-10-07T01:40:35.732Z,36.00
2022-10-07T01:43:03.812Z,34.70
2022-10-07T01:45:35.469Z,35.15
2022-10-07T01:48:04.290Z,35.05
2022-10-07T01:50:34.103Z,37.40
2022-10-07T01:53:29.992Z,36.28
2022-10-07T01:56:00.972Z,39.58
2022-10-07T01:59:09.442Z,40.95
2022-10-07T02:01:40.346Z,37.80
2022-10-07T02:04:36.419Z,39.40
2022-10-07T02:07:17.700Z,41.83
2022-10-07T02:09:59.261Z,45.42
2022-10-07T02:15:43.106Z,48.83
2022-10-07T02:20:48.912Z,49.47
2022-10-07T02:23:21.317Z,52.10
2022-10-07T02:25:51.033Z,51.50
2022-10-07T02:28:24.374Z,50.95
2022-10-07T02:31:00.862Z,50.42
2022-10-07T02:33:31.352Z,47.00
2022-10-07T02:36:08.246Z,50.03
2022-10-07T02:38:36.094Z,47.72
2022-10-07T02:41:31.575Z,46.85
2022-10-07T02:44:27.137Z,46.00
2022-10-07T02:47:16.916Z,45.30
2022-10-07T02:49:50.443Z,46.65
2022-10-07T02:52:20.376Z,46.47
2022-10-07T02:55:00.112Z,45.03
2022-10-07T02:57:33.665Z,44.78
2022-10-07T03:00:07.358Z,42.40
2022-10-07T03:02:54.544Z,46.17
2022-10-07T03:05:26.619Z,43.80
2022-10-07T03:08:01.822Z,44.35
2022-10-07T03:10:30.025Z,44.63
2022-10-07T03:12:58.087Z,43.60
2022-10-07T03:15:27.589Z,42.75
2022-10-07T03:17:56.530Z,42.78
2022-10-07T03:20:24.648Z,43.58
2022-10-07T03:22:53.633Z,43.13
2022-10-07T03:25:21.443Z,40.83
2022-10-07T03:27:50.129Z,43.80
2022-10-07T03:30:24.139Z,41.60
2022-10-07T03:32:55.219Z,43.95
2022-10-07T03:35:23.781Z,40.97
2022-10-07T03:37:54.363Z,41.85
2022-10-07T03:40:22.305Z,40.13
2022-10-07T03:42:50.605Z,40.20
2022-10-07T03:45:20.982Z,37.45
2022-10-07T03:47:49.334Z,35.58
2022-10-07T03:50:17.134Z,35.95
2022-10-07T03:52:48.694Z,37.13
2022-10-07T03:55:16.773Z,36.90
2022-10-07T03:57:51.300Z,36.92
2022-10-07T04:00:25.352Z,36.90
2022-10-07T04:02:56.610Z,36.70
2022-10-07T04:05:25.284Z,37.72
2022-10-07T04:07:53.333Z,39.58
2022-10-07T04:10:22.070Z,39.17
2022-10-07T04:12:52.445Z,37.35
2022-10-07T04:15:21.107Z,37.40
2022-10-07T04:17:50.181Z,37.13
2022-10-07T04:20:20.064Z,35.47
2022-10-07T04:22:47.807Z,37.45
2022-10-07T04:25:34.428Z,36.83
2022-10-07T04:28:16.119Z,37.05
2022-10-07T04:30:51.272Z,36.45
2022-10-07T04:33:24.283Z,36.70
2022-10-07T04:35:55.079Z,36.55
2022-10-07T04:38:28.085Z,38.15
2022-10-07T04:41:48.296Z,37.80
2022-10-07T04:44:21.479Z,37.50
2022-10-07T04:47:06.230Z,39.78
2022-10-07T04:49:39.614Z,37.72
2022-10-07T04:52:09.911Z,38.55
2022-10-07T04:54:40.208Z,39.30
2022-10-07T04:57:10.285Z,38.00
2022-10-07T04:59:42.590Z,39.28
2022-10-07T05:02:13.257Z,36.22
2022-10-07T05:04:41.006Z,38.35
2022-10-07T05:07:10.187Z,36.35
2022-10-07T05:09:41.686Z,36.78
2022-10-07T05:14:37.277Z,35.72
2022-10-07T05:17:05.484Z,36.25
2022-10-07T05:19:35.937Z,37.25
2022-10-07T05:22:04.316Z,36.90
2022-10-07T05:24:32.615Z,35.08
2022-10-07T05:27:01.459Z,35.70
2022-10-07T05:29:29.503Z,36.17
2022-10-07T05:32:03.729Z,35.88
2022-10-07T05:34:33.288Z,35.63
2022-10-07T05:37:01.521Z,36.35
2022-10-07T05:39:29.264Z,36.67
2022-10-07T05:42:04.670Z,38.58
2022-10-07T05:44:38.755Z,38.05
2022-10-07T05:47:07.350Z,36.00
2022-10-07T05:49:36.268Z,36.83
2022-10-07T05:52:05.161Z,35.30
2022-10-07T05:54:34.173Z,36.88
2022-10-07T05:57:03.406Z,36.50
2022-10-07T05:59:31.541Z,34.10
2022-10-07T06:02:01.091Z,36.80
2022-10-07T06:04:29.916Z,35.63
2022-10-07T06:06:57.666Z,35.05
2022-10-07T06:09:44.069Z,34.88
2022-10-07T06:12:34.567Z,35.20
2022-10-07T06:15:09.726Z,35.03
2022-10-07T06:17:44.444Z,35.55
2022-10-07T06:20:15.277Z,34.83
2022-10-07T06:22:44.484Z,36.88
2022-10-07T06:25:14.181Z,35.85
2022-10-07T06:27:42.974Z,35.88
2022-10-07T06:30:13.249Z,35.70
2022-10-07T06:32:40.956Z,35.20
2022-10-07T06:35:09.316Z,35.60
2022-10-07T06:37:39.369Z,36.75
2022-10-07T06:40:12.143Z,36.38
2022-10-07T06:42:40.554Z,36.60
2022-10-07T06:45:26.832Z,37.90
2022-10-07T06:47:55.002Z,37.80
2022-10-07T06:50:24.587Z,38.30
2022-10-07T06:52:53.262Z,38.20
2022-10-07T06:55:21.440Z,38.78
2022-10-07T06:57:49.291Z,38.20
2022-10-07T07:00:19.990Z,38.53
2022-10-07T07:02:48.728Z,39.60
2022-10-07T07:05:16.902Z,37.63
2022-10-07T07:07:46.995Z,36.70
2022-10-07T07:10:15.234Z,36.40
2022-10-07T07:12:47.841Z,34.33
2022-10-07T07:15:16.125Z,33.55
2022-10-07T07:17:44.366Z,34.85
2022-10-07T07:20:13.600Z,34.75
2022-10-07T07:22:43.386Z,34.10
2022-10-07T07:25:12.006Z,32.78
2022-10-07T07:27:40.165Z,33.25
2022-10-07T07:30:10.378Z,31.92
2022-10-07T07:32:38.065Z,30.38
2022-10-07T07:35:07.207Z,29.77
2022-10-07T07:37:34.924Z,45.72
2022-10-07T07:40:03.831Z,31.38
2022-10-07T07:42:33.388Z,33.08
2022-10-07T07:45:01.393Z,30.05
2022-10-07T07:47:29.959Z,27.55
2022-10-07T07:49:57.925Z,29.98
2022-10-07T07:52:30.489Z,30.02
2022-10-07T07:55:00.160Z,32.22
2022-10-07T07:57:28.451Z,26.30
2022-10-07T07:59:59.133Z,26.00
2022-10-07T08:02:27.979Z,27.30
2022-10-07T08:04:55.740Z,24.90
2022-10-07T08:07:25.017Z,28.13
2022-10-07T08:09:52.671Z,27.92
2022-10-07T08:12:22.279Z,26.92
2022-10-07T08:14:52.655Z,26.42
2022-10-07T08:17:20.648Z,30.60
2022-10-07T08:19:48.429Z,26.50
2022-10-07T08:22:17.912Z,26.02
2022-10-07T08:24:48.670Z,28.63
2022-10-07T08:27:19.358Z,26.25
2022-10-07T08:29:47.127Z,24.83
2022-10-07T08:32:14.987Z,24.05
2022-10-07T08:34:42.699Z,26.27
2022-10-07T08:37:35.339Z,25.75
2022-10-07T08:40:03.281Z,23.60
2022-10-07T08:42:37.764Z,24.23
2022-10-07T08:45:15.601Z,22.80
2022-10-07T08:47:47.536Z,23.13
2022-10-07T08:50:27.841Z,22.80
2022-10-07T08:53:05.148Z,22.30
2022-10-07T08:55:41.246Z,22.25
2022-10-07T08:58:34.782Z,26.70
2022-10-07T09:01:24.805Z,21.13
2022-10-07T09:04:20.694Z,24.60
2022-10-07T09:07:17.599Z,21.95
2022-10-07T09:09:55.145Z,19.85
2022-10-07T09:12:49.219Z,19.83
2022-10-07T09:15:52.019Z,18.70
2022-10-07T09:18:24.840Z,17.95
2022-10-07T09:20:55.637Z,17.48
2022-10-07T09:23:28.906Z,17.73
2022-10-07T09:25:56.993Z,15.45
2022-10-07T09:28:30.532Z,15.60
2022-10-07T09:31:00.083Z,15.73
2022-10-07T09:33:29.986Z,16.30
2022-10-07T09:36:09.905Z,16.35
2022-10-07T09:38:40.781Z,15.52
2022-10-07T09:41:20.034Z,14.68
2022-10-07T09:44:01.904Z,14.00
2022-10-07T09:47:12.778Z,15.63
2022-10-07T09:49:45.507Z,14.43
2022-10-07T09:52:14.838Z,10.32
2022-10-07T09:54:44.578Z,12.30
2022-10-07T09:57:34.881Z,6.93
2022-10-07T10:00:23.620Z,6.35
2022-10-07T10:03:05.609Z,6.40
2022-10-07T10:06:00.595Z,6.50
2022-10-07T10:08:34.457Z,7.25
2022-10-07T10:11:26.222Z,7.25
2022-10-07T10:13:54.514Z,6.38
2022-10-07T10:16:25.338Z,10.68
2022-10-07T10:19:23.137Z,30.63
2022-10-07T10:21:58.227Z,9.80
2022-10-07T10:24:48.894Z,6.53
2022-10-07T10:27:23.439Z,7.07
2022-10-07T10:30:04.554Z,6.85
2022-10-07T10:32:54.073Z,6.72
2022-10-07T10:35:49.662Z,6.88
2022-10-07T10:38:33.415Z,6.40
2022-10-07T10:41:21.653Z,6.80
2022-10-07T10:44:17.962Z,5.53
2022-10-07T10:47:17.487Z,9.00
2022-10-07T10:49:48.164Z,5.57
2022-10-07T10:52:26.094Z,5.93
2022-10-07T10:55:33.528Z,6.95
2022-10-07T10:58:25.135Z,6.57
2022-10-07T11:01:14.164Z,8.10
2022-10-07T11:03:59.259Z,6.05
2022-10-07T11:06:31.075Z,6.32
2022-10-07T11:09:00.548Z,8.93
2022-10-07T11:11:29.358Z,5.80
2022-10-07T11:14:20.908Z,13.32
2022-10-07T11:16:56.888Z,7.50
2022-10-07T11:19:43.528Z,8.57
2022-10-07T11:22:19.231Z,10.15
2022-10-07T11:24:57.079Z,15.00
2022-10-07T11:27:29.741Z,5.93
2022-10-07T11:30:08.090Z,7.22
2022-10-07T11:32:49.389Z,9.18
2022-10-07T11:35:31.570Z,7.32
2022-10-07T11:38:13.075Z,7.22
2022-10-07T11:40:49.620Z,7.65
2022-10-07T11:43:30.901Z,5.35
2022-10-07T11:46:11.165Z,6.13
2022-10-07T11:48:45.576Z,5.45
2022-10-07T11:51:22.896Z,5.40
2022-10-07T11:53:54.514Z,5.00
2022-10-07T11:56:26.389Z,8.15
2022-10-07T11:59:02.226Z,7.65
2022-10-07T12:01:41.477Z,9.32
2022-10-07T12:04:22.378Z,9.07
2022-10-07T12:07:27.521Z,10.02
2022-10-07T12:10:04.202Z,6.47
2022-10-07T12:12:45.755Z,8.35
2022-10-07T12:15:43.693Z,6.45
2022-10-07T12:18:17.613Z,6.85
2022-10-07T12:20:51.339Z,7.55
2022-10-07T12:23:19.196Z,13.18
2022-10-07T12:26:26.288Z,10.57
2022-10-07T12:28:55.929Z,9.25
2022-10-07T12:31:23.623Z,9.75
2022-10-07T12:34:10.393Z,7.85
2022-10-07T12:36:41.451Z,8.02
2022-10-07T12:39:09.915Z,9.63
2022-10-07T12:41:40.438Z,8.82
2022-10-07T12:44:23.174Z,15.18
2022-10-07T12:46:57.355Z,6.88
2022-10-07T12:49:36.791Z,7.88
2022-10-07T12:52:12.355Z,6.88
2022-10-07T12:55:03.110Z,7.57
2022-10-07T12:57:37.551Z,8.82
2022-10-07T13:00:18.386Z,7.93
2022-10-07T13:02:58.154Z,8.02
2022-10-07T13:05:34.933Z,7.28
2022-10-07T13:08:21.304Z,8.07
2022-10-07T13:11:20.872Z,8.68
2022-10-07T13:14:17.323Z,7.63
2022-10-07T13:17:01.908Z,6.90
2022-10-07T13:20:00.579Z,8.20
2022-10-07T13:22:28.914Z,6.93
2022-10-07T13:24:58.399Z,7.30
2022-10-07T13:27:31.368Z,7.30
2022-10-07T13:30:01.612Z,7.60
2022-10-07T13:32:34.502Z,6.93
2022-10-07T13:35:34.063Z,8.95
2022-10-07T13:38:04.082Z,6.93
2022-10-07T13:40:35.900Z,7.50
2022-10-07T13:43:09.635Z,6.95
2022-10-07T13:45:46.234Z,7.22
2022-10-07T13:48:21.207Z,7.05
2022-10-07T13:50:50.927Z,6.68
2022-10-07T13:53:23.201Z,7.38
2022-10-07T13:55:51.133Z,7.05
2022-10-07T13:58:19.995Z,8.63
2022-10-07T14:00:49.147Z,7.40
2022-10-07T14:03:18.333Z,7.75
2022-10-07T14:05:49.365Z,6.85
2022-10-07T14:08:28.155Z,9.57
2022-10-07T14:11:03.618Z,10.18
2022-10-07T14:13:33.503Z,8.00
2022-10-07T14:16:01.542Z,8.35
2022-10-07T14:18:31.508Z,8.48
2022-10-07T14:21:13.218Z,8.55
2022-10-07T14:23:41.190Z,9.45
2022-10-07T14:26:11.291Z,11.00
2022-10-07T14:28:40.311Z,9.23
2022-10-07T14:31:29.318Z,10.00
2022-10-07T14:34:15.692Z,9.50
2022-10-07T14:37:09.606Z,13.88
2022-10-07T14:39:48.771Z,11.45
2022-10-07T14:42:21.915Z,10.40
2022-10-07T14:44:50.581Z,13.93
2022-10-07T14:47:24.950Z,11.82
2022-10-07T14:49:53.858Z,13.45
2022-10-07T14:52:31.360Z,11.25
2022-10-07T14:55:03.426Z,10.13
2022-10-07T14:57:31.349Z,12.23
2022-10-07T14:59:59.034Z,11.05
2022-10-07T15:02:27.646Z,11.88
2022-10-07T15:04:55.472Z,12.30
2022-10-07T15:07:23.212Z,12.00
2022-10-07T15:09:50.948Z,13.15
2022-10-07T15:12:18.710Z,15.25
2022-10-07T15:14:46.257Z,11.75
2022-10-07T15:17:15.079Z,13.38
2022-10-07T15:19:42.758Z,21.00
2022-10-07T15:22:10.553Z,19.10
2022-10-07T15:24:38.942Z,14.55
2022-10-07T15:27:10.048Z,34.95
2022-10-07T15:32:07.608Z,17.95
2022-10-07T15:34:35.348Z,16.38
2022-10-07T15:37:03.047Z,15.18
2022-10-07T15:39:30.861Z,15.70
2022-10-07T15:41:58.516Z,25.90
2022-10-07T15:44:27.312Z,18.17
2022-10-07T15:46:55.145Z,14.27
2022-10-07T15:49:22.735Z,15.23
2022-10-07T15:51:50.695Z,13.98
2022-10-07T15:54:18.667Z,15.15
2022-10-07T15:56:50.277Z,27.23
2022-10-07T15:59:18.081Z,22.40
2022-10-07T16:01:45.878Z,18.98
2022-10-07T16:04:14.009Z,18.65
2022-10-07T16:06:42.517Z,18.42
2022-10-07T16:09:10.557Z,17.08
2022-10-07T16:11:38.192Z,16.23
2022-10-07T16:14:05.977Z,17.60
2022-10-07T16:16:33.759Z,17.13
2022-10-07T16:19:02.077Z,16.13
2022-10-07T16:21:32.976Z,16.42
2022-10-07T16:24:06.675Z,18.35
2022-10-07T16:26:36.017Z,16.67
2022-10-07T16:29:25.403Z,19.30
2022-10-07T16:31:58.230Z,18.77
2022-10-07T16:34:28.501Z,20.08
2022-10-07T16:36:57.694Z,22.30
2022-10-07T16:39:25.750Z,21.20
2022-10-07T16:41:54.198Z,20.75
2022-10-07T16:44:22.427Z,20.83
2022-10-07T16:46:50.330Z,18.52
2022-10-07T16:49:18.742Z,19.25
2022-10-07T16:51:46.717Z,20.02
2022-10-07T16:54:17.839Z,20.33
2022-10-07T16:59:23.921Z,27.73
2022-10-07T17:01:55.130Z,24.65
2022-10-07T17:04:24.750Z,37.40
2022-10-07T17:06:53.450Z,28.40
2022-10-07T17:09:24.662Z,29.40
2022-10-07T17:11:52.770Z,29.52
2022-10-07T17:14:21.679Z,25.25
2022-10-07T17:16:56.988Z,22.13
2022-10-07T17:19:27.257Z,21.00
2022-10-07T17:21:56.120Z,51.03
2022-10-07T17:24:24.082Z,35.53
2022-10-07T17:26:53.194Z,21.85
2022-10-07T17:29:23.571Z,27.30
2022-10-07T17:31:53.048Z,29.10
2022-10-07T17:34:21.685Z,26.65
2022-10-07T17:36:50.464Z,24.77
2022-10-07T17:39:19.443Z,24.77
2022-10-07T17:41:48.066Z,25.10
2022-10-07T17:44:15.904Z,23.15
2022-10-07T17:46:43.769Z,23.00
2022-10-07T17:49:13.561Z,25.05
2022-10-07T17:51:43.468Z,23.75
2022-10-07T17:54:13.795Z,23.35
2022-10-07T17:56:46.263Z,26.05
2022-10-07T17:59:19.681Z,34.58
2022-10-07T18:01:48.782Z,29.73
2022-10-07T18:04:24.699Z,27.70
2022-10-07T18:06:53.321Z,24.63
2022-10-07T18:09:25.550Z,29.13
2022-10-07T18:12:13.030Z,26.73
2022-10-07T18:14:59.317Z,31.48
2022-10-07T18:17:28.770Z,41.50
2022-10-07T18:20:01.511Z,38.00
2022-10-07T18:22:31.601Z,31.92
2022-10-07T18:24:59.831Z,34.38
2022-10-07T18:27:34.099Z,36.95
2022-10-07T18:30:04.842Z,31.17
2022-10-07T18:32:32.481Z,30.10
2022-10-07T18:35:00.278Z,41.33
2022-10-07T18:37:28.103Z,35.53
2022-10-07T18:39:55.979Z,31.20
2022-10-07T18:42:23.664Z,38.20
2022-10-07T18:44:52.492Z,47.13
2022-10-07T18:47:20.523Z,40.22
2022-10-07T18:49:48.434Z,34.80
2022-10-07T18:52:17.078Z,35.38
2022-10-07T18:54:49.119Z,36.28
2022-10-07T18:57:16.914Z,31.38
2022-10-07T18:59:55.352Z,32.70
2022-10-07T19:02:23.474Z,54.60
2022-10-07T19:04:51.279Z,35.58
2022-10-07T19:07:19.700Z,34.20
2022-10-07T19:10:12.600Z,36.22
2022-10-07T19:12:58.953Z,35.55
2022-10-07T19:15:55.503Z,33.00
2022-10-07T19:18:28.572Z,34.80
2022-10-07T19:21:01.196Z,32.88
2022-10-07T19:23:29.742Z,33.80
2022-10-07T19:26:05.478Z,31.45
2022-10-07T19:28:39.023Z,33.42
2022-10-07T19:31:23.959Z,35.63
2022-10-07T19:33:58.060Z,34.00
2022-10-07T19:36:28.737Z,33.70
2022-10-07T19:38:58.669Z,32.38
2022-10-07T19:41:31.962Z,31.27
2022-10-07T19:44:00.613Z,35.70
2022-10-07T19:46:30.734Z,30.20
2022-10-07T19:49:00.251Z,31.80
2022-10-07T19:51:33.193Z,34.08
2022-10-07T19:54:12.380Z,37.65
2022-10-07T19:56:57.736Z,37.25
2022-10-07T19:59:30.922Z,43.80
2022-10-07T20:02:01.335Z,33.50
2022-10-07T20:04:34.071Z,37.78
2022-10-07T20:07:01.842Z,37.95
2022-10-07T20:09:29.399Z,36.03
2022-10-07T20:11:57.257Z,34.88
2022-10-07T20:14:28.442Z,32.95
2022-10-07T20:19:27.013Z,35.80
2022-10-07T20:21:54.862Z,33.70
2022-10-07T20:24:22.851Z,34.80
2022-10-07T20:26:50.624Z,32.28
2022-10-07T20:29:25.701Z,33.28
2022-10-07T20:32:12.402Z,33.92
2022-10-07T20:34:40.879Z,33.88
2022-10-07T20:37:08.530Z,33.05
2022-10-07T20:39:55.062Z,34.17
2022-10-07T20:42:38.088Z,36.75
2022-10-07T20:45:12.116Z,32.22
2022-10-07T20:47:46.582Z,36.15
2022-10-07T20:50:38.730Z,33.03
2022-10-07T20:53:06.539Z,33.75
2022-10-07T20:55:41.513Z,38.25
2022-10-07T20:58:09.663Z,50.80
2022-10-07T21:00:37.447Z,35.55
2022-10-07T21:03:05.339Z,33.80
2022-10-07T21:05:39.499Z,37.38
2022-10-07T21:08:07.499Z,35.40
2022-10-07T21:10:35.206Z,33.63
2022-10-07T21:13:09.897Z,35.67
2022-10-07T21:15:39.550Z,32.72
2022-10-07T21:18:07.700Z,34.60
2022-10-07T21:20:36.820Z,34.97
2022-10-07T21:23:04.749Z,33.50
2022-10-07T21:25:32.811Z,34.40
2022-10-07T21:28:00.562Z,33.92
2022-10-07T21:30:29.543Z,35.20
2022-10-07T21:32:58.839Z,32.92
2022-10-07T21:35:26.570Z,33.33
2022-10-07T21:37:54.428Z,34.92
2022-10-07T21:40:24.995Z,34.45
2022-10-07T21:42:57.989Z,35.92
2022-10-07T21:45:27.972Z,35.53
2022-10-07T21:47:55.709Z,33.85
2022-10-07T21:50:23.479Z,34.03
2022-10-07T21:52:51.459Z,35.17
2022-10-07T21:55:19.166Z,34.78
2022-10-07T21:58:17.950Z,34.70
2022-10-07T22:00:51.743Z,34.45
2022-10-07T22:03:19.759Z,35.10
2022-10-07T22:05:50.412Z,35.30
2022-10-07T22:08:36.675Z,34.70
2022-10-07T22:11:18.340Z,36.25
2022-10-07T22:13:55.327Z,36.20
2022-10-07T22:16:23.126Z,35.78
2022-10-07T22:18:53.806Z,35.88
2022-10-07T22:21:27.861Z,35.97
2022-10-07T22:24:05.174Z,36.33
2022-10-07T22:26:40.716Z,36.22
2022-10-07T22:29:13.320Z,36.25
2022-10-07T22:31:41.128Z,37.85
2022-10-07T22:34:09.210Z,38.80
2022-10-07T22:36:37.624Z,40.15
2022-10-07T22:39:12.250Z,37.28
2022-10-07T22:41:40.583Z,39.08
2022-10-07T22:44:34.490Z,36.40
2022-10-07T22:47:02.611Z,34.95
2022-10-07T22:49:32.442Z,36.92
2022-10-07T22:52:00.427Z,35.53
2022-10-07T22:54:28.771Z,34.40
2022-10-07T22:57:21.101Z,36.45
2022-10-07T22:59:49.215Z,34.85
2022-10-07T23:02:42.578Z,36.03
2022-10-07T23:05:11.045Z,36.25
2022-10-07T23:07:40.810Z,36.53
2022-10-07T23:10:33.472Z,37.67
2022-10-07T23:13:03.789Z,37.90
2022-10-07T23:15:31.753Z,35.90
2022-10-07T23:18:24.099Z,37.20
2022-10-07T23:21:22.606Z,37.45
2022-10-07T23:23:52.935Z,36.97
2022-10-07T23:26:23.449Z,36.80
2022-10-07T23:28:52.492Z,36.25
2022-10-07T23:31:22.794Z,36.28
2022-10-07T23:33:54.838Z,36.45
2022-10-07T23:36:23.789Z,36.45
2022-10-07T23:38:52.646Z,38.33
2022-10-07T23:41:25.965Z,35.80
2022-10-07T23:43:59.084Z,35.63
2022-10-07T23:46:28.451Z,35.72
2022-10-07T23:48:56.401Z,36.08
2022-10-07T23:51:27.351Z,36.50
2022-10-07T23:54:00.034Z,36.38
2022-10-07T23:56:28.450Z,36.13
2022-10-07T23:58:56.165Z,35.28
